Accueil
METAR-TAF:

METAR-TAF

Aéroports :

Base aérienne de Büchel

Büchel, Allemagne

latitude: 50-10N, longitude: 007-04E, altitude: 478 m

Observation

Le bulletin a été fait il y a 16 minutes, à 22:20 UTC
Vent 5 kt de nord/nord-ouest
Température 1°C
Humidité 86%
Pression 1020 hPa

METAR: ETSB 222220Z AUTO 34005KT //// // ////// 01/M01 Q1020 ///

Heure: 00:36 (22:36 UTC)

Prévision

Le bulletin a été fait il y a 9 heures et 7 minutes, à 13:29 UTC
Prévision valable du 22 à 14 UTC au 22 à 23 UTC
Vent 8 kt de nord
Visibilité 10 km ou plus
Nuages épars à une hauteur de 4000 ft
Temporairement
du 22 à 14 UTC au 22 à 17 UTC
Vent 10 kt de nord/nord-est avec des rafales jusqu'à 20 kt
Visibilité: 4000 m
Nuages fragmentés à une hauteur de 1000 ft
Nuages fragmentés à une hauteur de 2000 ft, Cumulonimbus.
averses de pluie, grésil ou neige roulée,

TAF: ETSB 221329Z 2214/2223 01008KT 9999 NSW SCT040 TEMPO 2214/2217 02010G20KT 4000 SHRAGS BKN010 BKN020CB

Observations et prévisions météorologiques de plus de 4000 aéroports (messages METAR et TAF).

Les stations disponibles sont représentées par des disques jaunes et rouges sur la carte.

Passer la souris dessus pour voir le nom de la station.

Cliquer dessus pour voir les observations et prévisions météorologiques.

Pour changer de carte: cliquez sur les boutons verts avec une croix noire pour zoomer, sur le bouton vert avec un tiret pour effectuer un zoom arrière, ou sur les flèches vertes pour les cartes adjacentes.


METAR-TAF: